createdAt,value
2023-04-07T00:00:09.922Z,570.3846
2023-04-07T00:01:11.522Z,570.0000
2023-04-07T00:02:13.248Z,571.3077
2023-04-07T00:03:14.878Z,569.9231
2023-04-07T00:04:17.134Z,569.0000
2023-04-07T00:05:18.127Z,568.7692
2023-04-07T00:06:19.662Z,570.0769
2023-04-07T00:07:21.400Z,570.8461
2023-04-07T00:08:23.184Z,570.5385
2023-04-07T00:09:24.701Z,569.3077
2023-04-07T00:10:26.442Z,568.5385
2023-04-07T00:11:27.992Z,570.0769
2023-04-07T00:12:29.607Z,573.3077
2023-04-07T00:13:31.277Z,574.8461
2023-04-07T00:14:32.937Z,574.2308
2023-04-07T00:15:35.071Z,572.6923
2023-04-07T00:16:37.004Z,571.0000
2023-04-07T00:17:37.965Z,570.8461
2023-04-07T00:18:39.518Z,573.4615
2023-04-07T00:19:41.213Z,573.7692
2023-04-07T00:20:42.998Z,571.5385
2023-04-07T00:21:44.539Z,570.3077
2023-04-07T00:22:46.094Z,571.0769
2023-04-07T00:23:47.829Z,572.5385
2023-04-07T00:24:49.487Z,572.5385
2023-04-07T00:25:51.183Z,571.0769
2023-04-07T00:26:52.792Z,570.3846
2023-04-07T00:27:54.464Z,570.4615
2023-04-07T00:28:56.069Z,569.2308
2023-04-07T00:30:59.472Z,570.6923
2023-04-07T00:32:01.146Z,572.6923
2023-04-07T00:33:02.706Z,572.6923
2023-04-07T00:34:04.393Z,575.8461
2023-04-07T00:35:05.897Z,575.0000
2023-04-07T00:36:07.781Z,574.6154
2023-04-07T00:37:09.307Z,573.5385
2023-04-07T00:38:11.015Z,573.5385
2023-04-07T00:39:12.694Z,573.8461
2023-04-07T00:40:14.335Z,572.0769
2023-04-07T00:41:15.963Z,571.2308
2023-04-07T00:42:17.588Z,571.6154
2023-04-07T00:43:19.250Z,572.3077
2023-04-07T00:44:20.874Z,572.6923
2023-04-07T00:45:22.595Z,570.6923
2023-04-07T00:46:24.236Z,570.1539
2023-04-07T00:47:25.890Z,572.0769
2023-04-07T00:48:27.492Z,572.6154
2023-04-07T00:49:29.190Z,574.2308
2023-04-07T00:50:30.831Z,573.0000
2023-04-07T00:51:32.545Z,571.4615
2023-04-07T00:52:34.562Z,569.6923
2023-04-07T00:53:35.823Z,570.3077
2023-04-07T00:54:37.508Z,573.3077
2023-04-07T00:55:39.095Z,573.3846
2023-04-07T00:56:42.456Z,573.8461
2023-04-07T00:57:42.993Z,574.5385
2023-04-07T00:58:44.077Z,574.4615
2023-04-07T00:59:45.724Z,576.2308
2023-04-07T01:00:47.373Z,577.9231
2023-04-07T01:01:49.046Z,578.0000
2023-04-07T01:02:50.788Z,577.7692
2023-04-07T01:03:52.694Z,575.8461
2023-04-07T01:04:54.514Z,574.3077
2023-04-07T01:05:55.663Z,571.2308
2023-04-07T01:06:57.396Z,569.4615
2023-04-07T01:07:58.930Z,569.6923
2023-04-07T01:09:00.602Z,571.2308
2023-04-07T01:10:02.238Z,570.4615
2023-04-07T01:11:03.914Z,569.6154
2023-04-07T01:12:05.576Z,569.6154
2023-04-07T01:13:07.148Z,570.3077
2023-04-07T01:14:08.855Z,571.0000
2023-04-07T01:15:10.504Z,571.5385
2023-04-07T01:16:12.350Z,571.0769
2023-04-07T01:17:13.902Z,569.2308
2023-04-07T01:18:15.542Z,567.4615
2023-04-07T01:19:17.186Z,567.4615
2023-04-07T01:20:18.753Z,566.8461
2023-04-07T01:21:20.472Z,565.9231
2023-04-07T01:22:22.221Z,565.6923
2023-04-07T01:23:23.786Z,562.6154
2023-04-07T01:24:26.113Z,562.4615
2023-04-07T01:25:27.121Z,562.9231
2023-04-07T01:26:28.752Z,563.4615
2023-04-07T01:27:30.429Z,562.3077
2023-04-07T01:28:32.080Z,561.9231
2023-04-07T01:29:33.731Z,563.3846
2023-04-07T01:30:35.353Z,568.0769
2023-04-07T01:31:36.999Z,570.0000
2023-04-07T01:32:38.651Z,569.6923
2023-04-07T01:33:40.307Z,568.5385
2023-04-07T01:34:42.095Z,568.6154
2023-04-07T01:35:43.615Z,570.6154
2023-04-07T01:36:45.227Z,570.7692
2023-04-07T01:37:47.049Z,571.8461
2023-04-07T01:38:48.624Z,571.5385
2023-04-07T01:39:50.170Z,570.3846
2023-04-07T01:40:51.939Z,572.6923
2023-04-07T01:41:53.546Z,573.3077
2023-04-07T01:42:55.269Z,573.7692
2023-04-07T01:43:56.884Z,574.9231
2023-04-07T01:44:58.554Z,576.2308
2023-04-07T01:46:00.248Z,576.6154
2023-04-07T01:47:01.880Z,574.5385
2023-04-07T01:48:03.578Z,573.3077
2023-04-07T01:49:05.161Z,572.0000
2023-04-07T01:50:07.163Z,570.3077
2023-04-07T01:51:08.467Z,568.2308
2023-04-07T01:52:10.115Z,571.1539
2023-04-07T01:53:11.889Z,572.1539
2023-04-07T01:54:13.489Z,573.3846
2023-04-07T01:55:15.108Z,573.0000
2023-04-07T01:56:16.806Z,570.6154
2023-04-07T01:57:18.383Z,569.2308
2023-04-07T01:58:20.097Z,569.2308
2023-04-07T01:59:21.770Z,570.9231
2023-04-07T02:00:23.416Z,571.6923
2023-04-07T02:01:25.043Z,568.7692
2023-04-07T02:02:26.766Z,567.1539
2023-04-07T02:03:28.497Z,570.6923
2023-04-07T02:04:30.155Z,572.2308
2023-04-07T02:05:31.655Z,572.7692
2023-04-07T02:06:33.378Z,570.6923
2023-04-07T02:07:34.984Z,566.5385
2023-04-07T02:08:36.623Z,564.3846
2023-04-07T02:09:38.215Z,564.6154
2023-04-07T02:10:39.960Z,566.7692
2023-04-07T02:11:41.629Z,568.5385
2023-04-07T02:12:43.203Z,569.0000
2023-04-07T02:13:44.772Z,569.8461
2023-04-07T02:14:46.377Z,569.3077
2023-04-07T02:15:48.027Z,569.4615
2023-04-07T02:16:49.730Z,566.8461
2023-04-07T02:17:51.378Z,562.4615
2023-04-07T02:18:53.057Z,563.2308
2023-04-07T02:19:54.665Z,562.7692
2023-04-07T02:20:56.380Z,560.6154
2023-04-07T02:21:58.010Z,560.4615
2023-04-07T02:22:59.659Z,560.6154
2023-04-07T02:24:01.333Z,560.6923
2023-04-07T02:25:02.933Z,560.8461
2023-04-07T02:26:04.630Z,562.6923
2023-04-07T02:27:06.297Z,562.7692
2023-04-07T02:28:07.949Z,563.3846
2023-04-07T02:29:09.607Z,561.1539
2023-04-07T02:30:11.236Z,560.8461
2023-04-07T02:31:12.933Z,562.6923
2023-04-07T02:32:15.490Z,562.6154
2023-04-07T02:33:16.217Z,561.0000
2023-04-07T02:34:17.851Z,561.8461
2023-04-07T02:35:19.488Z,565.4615
2023-04-07T02:36:21.209Z,567.0000
2023-04-07T02:37:22.799Z,567.2308
2023-04-07T02:38:24.445Z,568.0000
2023-04-07T02:39:26.134Z,569.6154
2023-04-07T02:40:28.128Z,570.3846
2023-04-07T02:41:29.413Z,569.5385
2023-04-07T02:42:31.972Z,568.3077
2023-04-07T02:43:32.689Z,567.7692
2023-04-07T02:44:34.377Z,566.2308
2023-04-07T02:45:35.984Z,566.6923
2023-04-07T02:46:37.756Z,567.5385
2023-04-07T02:47:39.327Z,567.5385
2023-04-07T02:48:40.963Z,568.3846
2023-04-07T02:49:43.051Z,569.2308
2023-04-07T02:50:44.290Z,571.5385
2023-04-07T02:51:45.916Z,572.8461
2023-04-07T02:52:47.608Z,574.2308
2023-04-07T02:53:49.222Z,572.8461
2023-04-07T02:54:50.891Z,570.3077
2023-04-07T02:55:52.575Z,570.6923
2023-04-07T02:56:54.171Z,572.5385
2023-04-07T02:57:55.823Z,572.1539
2023-04-07T02:58:58.027Z,571.8461
2023-04-07T02:59:59.176Z,569.2308
2023-04-07T03:01:00.896Z,569.5385
2023-04-07T03:02:02.615Z,570.5385
2023-04-07T03:03:04.344Z,571.7692
2023-04-07T03:04:05.862Z,570.7692
2023-04-07T03:05:07.403Z,570.2308
2023-04-07T03:06:09.131Z,568.6154
2023-04-07T03:07:10.768Z,565.7692
2023-04-07T03:08:13.085Z,565.2308
2023-04-07T03:09:14.091Z,567.0769
2023-04-07T03:10:16.211Z,570.0000
2023-04-07T03:11:17.604Z,571.0000
2023-04-07T03:12:19.031Z,571.9231
2023-04-07T03:13:20.767Z,574.1539
2023-04-07T03:14:22.329Z,573.3077
2023-04-07T03:15:24.068Z,573.6923
2023-04-07T03:16:25.798Z,573.7692
2023-04-07T03:17:27.451Z,572.9231
2023-04-07T03:18:28.925Z,574.1539
2023-04-07T03:19:30.537Z,573.4615
2023-04-07T03:20:32.265Z,572.5385
2023-04-07T03:21:33.889Z,573.2308
2023-04-07T03:22:35.665Z,575.6154
2023-04-07T03:23:37.219Z,577.0769
2023-04-07T03:24:38.910Z,577.1539
2023-04-07T03:25:40.550Z,578.3077
2023-04-07T03:26:42.071Z,577.6154
2023-04-07T03:27:43.844Z,575.0000
2023-04-07T03:28:45.429Z,574.2308
2023-04-07T03:29:47.209Z,575.6923
2023-04-07T03:30:48.841Z,575.0769
2023-04-07T03:31:50.553Z,574.8461
2023-04-07T03:32:52.096Z,575.4615
2023-04-07T03:33:53.981Z,574.6923
2023-04-07T03:34:55.381Z,573.9231
2023-04-07T03:35:57.086Z,577.1539
2023-04-07T03:36:58.688Z,578.9231
2023-04-07T03:38:00.377Z,579.6154
2023-04-07T03:39:02.050Z,581.0769
2023-04-07T03:40:03.660Z,583.0769
2023-04-07T03:41:05.359Z,582.4615
2023-04-07T03:42:06.890Z,581.1539
2023-04-07T03:43:08.608Z,579.1539
2023-04-07T03:44:10.327Z,579.2308
2023-04-07T03:45:12.002Z,578.4615
2023-04-07T03:46:13.603Z,578.8461
2023-04-07T03:47:15.312Z,579.6923
2023-04-07T03:48:16.888Z,580.0769
2023-04-07T03:49:18.537Z,579.8461
2023-04-07T03:50:20.278Z,580.6154
2023-04-07T03:51:22.148Z,578.7692
2023-04-07T03:52:24.104Z,577.8461
2023-04-07T03:53:25.158Z,579.3077
2023-04-07T03:54:26.842Z,578.4615
2023-04-07T03:55:28.487Z,578.3077
2023-04-07T03:56:30.171Z,581.1539
2023-04-07T03:57:31.779Z,580.5385
2023-04-07T03:58:33.411Z,580.9231
2023-04-07T03:59:35.121Z,580.3077
2023-04-07T04:00:36.731Z,579.6923
2023-04-07T04:01:38.448Z,579.6154
2023-04-07T04:02:40.190Z,580.5385
2023-04-07T04:03:41.850Z,581.9231
2023-04-07T04:04:43.427Z,583.0000
2023-04-07T04:05:45.099Z,582.6154
2023-04-07T04:06:46.681Z,583.2308
2023-04-07T04:07:48.344Z,585.1539
2023-04-07T04:08:50.027Z,585.6923
2023-04-07T04:09:51.485Z,585.6154
2023-04-07T04:10:53.146Z,586.1539
2023-04-07T04:11:55.514Z,586.3846
2023-04-07T04:12:56.476Z,586.1539
2023-04-07T04:13:58.140Z,585.3077
2023-04-07T04:14:59.776Z,585.4615
2023-04-07T04:16:01.596Z,582.3846
2023-04-07T04:17:05.404Z,581.9231
2023-04-07T04:18:04.809Z,582.3846
2023-04-07T04:19:06.383Z,582.3846
2023-04-07T04:20:08.774Z,583.3077
2023-04-07T04:21:09.722Z,583.3077
2023-04-07T04:22:11.462Z,583.5385
2023-04-07T04:23:13.091Z,583.0769
2023-04-07T04:24:14.712Z,585.0000
2023-04-07T04:25:16.335Z,585.5385
2023-04-07T04:26:18.001Z,585.1539
2023-04-07T04:27:20.541Z,584.5385
2023-04-07T04:28:21.374Z,584.3846
2023-04-07T04:29:22.970Z,583.3846
2023-04-07T04:30:24.635Z,581.3846
2023-04-07T04:31:26.278Z,583.7692
2023-04-07T04:32:28.549Z,583.1539
2023-04-07T04:33:31.565Z,582.9231
2023-04-07T04:34:31.243Z,584.3077
2023-04-07T04:35:32.891Z,586.0769
2023-04-07T04:36:35.632Z,587.5385
2023-04-07T04:37:36.258Z,587.0833
2023-04-07T04:38:38.097Z,586.0000
2023-04-07T04:39:40.014Z,583.3846
2023-04-07T04:40:41.213Z,582.5385
2023-04-07T04:41:42.842Z,585.0769
2023-04-07T04:42:44.478Z,585.5385
2023-04-07T04:43:47.936Z,585.7692
2023-04-07T04:44:47.773Z,585.7692
2023-04-07T04:45:49.416Z,584.3077
2023-04-07T04:46:51.145Z,581.9231
2023-04-07T04:47:52.752Z,581.6154
2023-04-07T04:48:54.589Z,582.7692
2023-04-07T04:49:56.054Z,585.3077
2023-04-07T04:50:57.695Z,584.5385
2023-04-07T04:51:59.369Z,582.3846
2023-04-07T04:53:01.019Z,579.2308
2023-04-07T04:54:02.675Z,579.4615
2023-04-07T04:55:04.290Z,579.8461
2023-04-07T04:56:05.958Z,579.3077
2023-04-07T04:57:07.683Z,581.0000
2023-04-07T04:58:09.373Z,582.2308
2023-04-07T04:59:11.061Z,584.4615
2023-04-07T05:00:12.591Z,587.4615
2023-04-07T05:01:14.380Z,590.0000
2023-04-07T05:02:16.104Z,589.3077
2023-04-07T05:03:17.778Z,587.5385
2023-04-07T05:04:19.835Z,587.9231
2023-04-07T05:05:20.992Z,586.3077
2023-04-07T05:06:23.264Z,586.9231
2023-04-07T05:07:25.267Z,588.2308
2023-04-07T05:08:25.871Z,588.5385
2023-04-07T05:09:27.572Z,588.1539
2023-04-07T05:10:29.242Z,587.1539
2023-04-07T05:11:30.840Z,587.3846
2023-04-07T05:12:32.474Z,587.9231
2023-04-07T05:13:34.217Z,590.4615
2023-04-07T05:14:36.014Z,592.0769
2023-04-07T05:15:37.482Z,591.4615
2023-04-07T05:16:39.201Z,591.1539
2023-04-07T05:17:40.841Z,590.7692
2023-04-07T05:18:42.450Z,591.3077
2023-04-07T05:19:44.729Z,590.3846
2023-04-07T05:20:45.814Z,590.0769
2023-04-07T05:21:47.483Z,590.6923
2023-04-07T05:22:49.211Z,593.3077
2023-04-07T05:23:51.090Z,592.6154
2023-04-07T05:24:52.548Z,592.2308
2023-04-07T05:25:54.509Z,592.6923
2023-04-07T05:26:55.751Z,588.8461
2023-04-07T05:27:57.494Z,585.7692
2023-04-07T05:28:59.076Z,585.4615
2023-04-07T05:30:01.604Z,586.4615
2023-04-07T05:31:02.358Z,589.1539
2023-04-07T05:32:04.092Z,590.5385
2023-04-07T05:33:05.712Z,591.3846
2023-04-07T05:34:07.344Z,590.6154
2023-04-07T05:35:09.097Z,589.8461
2023-04-07T05:36:10.724Z,591.6923
2023-04-07T05:37:12.343Z,593.1539
2023-04-07T05:38:14.025Z,595.5385
2023-04-07T05:39:15.680Z,592.2308
2023-04-07T05:40:17.210Z,590.6154
2023-04-07T05:41:18.921Z,589.2308
2023-04-07T05:42:20.611Z,589.0769
2023-04-07T05:43:22.249Z,591.2308
2023-04-07T05:44:23.877Z,590.9231
2023-04-07T05:45:25.611Z,588.3077
2023-04-07T05:46:27.259Z,586.7692
2023-04-07T05:47:28.918Z,586.0000
2023-04-07T05:48:30.539Z,584.8461
2023-04-07T05:49:32.170Z,585.8461
2023-04-07T05:50:33.894Z,585.5385
2023-04-07T05:51:35.541Z,585.5385
2023-04-07T05:52:37.153Z,588.3077
2023-04-07T05:53:38.831Z,590.7692
2023-04-07T05:54:40.458Z,590.7692
2023-04-07T05:55:42.131Z,589.9231
2023-04-07T05:56:43.942Z,588.7692
2023-04-07T05:57:45.432Z,590.3846
2023-04-07T05:58:50.338Z,591.1539
2023-04-07T05:59:53.554Z,591.6429
2023-04-07T06:00:55.222Z,592.0769
2023-04-07T06:01:56.846Z,591.5385
2023-04-07T06:02:58.718Z,589.7692
2023-04-07T06:04:00.211Z,586.9231
2023-04-07T06:05:01.767Z,588.6154
2023-04-07T06:06:03.456Z,591.0769
2023-04-07T06:07:05.169Z,590.3077
2023-04-07T06:08:06.718Z,590.3077
2023-04-07T06:09:08.480Z,588.2308
2023-04-07T06:10:10.070Z,585.7692
2023-04-07T06:11:11.781Z,587.8461
2023-04-07T06:12:13.357Z,586.5385
2023-04-07T06:13:15.105Z,585.1539
2023-04-07T06:14:17.154Z,586.6154
2023-04-07T06:15:18.375Z,587.4615
2023-04-07T06:16:20.097Z,587.6923
2023-04-07T06:17:21.750Z,588.1539
2023-04-07T06:18:23.262Z,589.1539
2023-04-07T06:19:24.922Z,587.4615
2023-04-07T06:20:26.628Z,587.2308
2023-04-07T06:21:28.196Z,586.7692
2023-04-07T06:22:29.938Z,585.0769
2023-04-07T06:23:31.540Z,583.6154
2023-04-07T06:24:33.183Z,583.1539
2023-04-07T06:25:35.959Z,582.5385
2023-04-07T06:26:36.546Z,583.2308
2023-04-07T06:27:38.176Z,581.0000
2023-04-07T06:28:39.812Z,578.9231
2023-04-07T06:29:41.409Z,578.5385
2023-04-07T06:30:43.140Z,583.0769
2023-04-07T06:31:44.821Z,585.9231
2023-04-07T06:32:46.513Z,584.9231
2023-04-07T06:33:48.402Z,585.0000
2023-04-07T06:34:49.936Z,584.2308
2023-04-07T06:35:51.444Z,584.6923
2023-04-07T06:36:53.059Z,583.0769
2023-04-07T06:37:54.723Z,583.6923
2023-04-07T06:38:56.553Z,583.3077
2023-04-07T06:39:58.000Z,585.3846
2023-04-07T06:40:59.732Z,585.8461
2023-04-07T06:42:01.406Z,589.0000
2023-04-07T06:43:03.065Z,586.9231
2023-04-07T06:44:04.669Z,581.9231
2023-04-07T06:45:06.274Z,582.8461
2023-04-07T06:46:08.122Z,585.0769
2023-04-07T06:47:09.676Z,586.4615
2023-04-07T06:48:11.109Z,583.1539
2023-04-07T06:49:12.741Z,581.7692
2023-04-07T06:50:14.414Z,580.6923
2023-04-07T06:51:16.100Z,581.9231
2023-04-07T06:52:17.773Z,577.5385
2023-04-07T06:53:19.395Z,577.8461
2023-04-07T06:54:21.199Z,579.0769
2023-04-07T06:55:22.756Z,576.4615
2023-04-07T06:56:24.476Z,575.0769
2023-04-07T06:57:26.222Z,575.3846
2023-04-07T06:58:27.700Z,574.2308
2023-04-07T06:59:29.366Z,572.3846
2023-04-07T07:00:31.022Z,572.8461
2023-04-07T07:01:32.911Z,572.1539
2023-04-07T07:02:34.395Z,574.6154
2023-04-07T07:03:36.116Z,573.8461
2023-04-07T07:04:37.672Z,574.0000
2023-04-07T07:05:39.308Z,575.8461
2023-04-07T07:06:41.160Z,575.3846
2023-04-07T07:07:42.642Z,572.6154
2023-04-07T07:08:44.318Z,571.3077
2023-04-07T07:09:46.061Z,570.9231
2023-04-07T07:10:47.610Z,572.6923
2023-04-07T07:11:54.746Z,574.7692
2023-04-07T07:12:50.937Z,576.6667
2023-04-07T07:13:52.548Z,577.2308
2023-04-07T07:14:54.245Z,575.5385
2023-04-07T07:15:55.982Z,573.5385
2023-04-07T07:16:57.612Z,574.0000
2023-04-07T07:17:59.345Z,571.2308
2023-04-07T07:19:00.882Z,571.0000
2023-04-07T07:20:02.515Z,571.8461
2023-04-07T07:21:04.202Z,574.3846
2023-04-07T07:22:06.256Z,576.9231
2023-04-07T07:23:07.537Z,577.6154
2023-04-07T07:24:09.143Z,579.4615
2023-04-07T07:25:10.835Z,579.9231
2023-04-07T07:26:12.509Z,578.7692
2023-04-07T07:27:14.238Z,576.9231
2023-04-07T07:28:15.976Z,582.8461
2023-04-07T07:29:17.473Z,584.8461
2023-04-07T07:30:19.156Z,588.3077
2023-04-07T07:31:20.806Z,591.2308
2023-04-07T07:32:22.632Z,593.8461
2023-04-07T07:33:24.244Z,596.0000
2023-04-07T07:34:26.714Z,602.0769
2023-04-07T07:35:27.586Z,604.6923
2023-04-07T07:36:29.190Z,603.7692
2023-04-07T07:37:31.778Z,604.2308
2023-04-07T07:38:33.043Z,605.1539
2023-04-07T07:39:34.897Z,606.1539
2023-04-07T07:40:36.756Z,605.6154
2023-04-07T07:41:37.473Z,604.3077
2023-04-07T07:42:39.153Z,602.6154
2023-04-07T07:43:41.760Z,600.6154
2023-04-07T07:44:42.397Z,603.1539
2023-04-07T07:45:44.064Z,605.0000
2023-04-07T07:46:45.768Z,603.7692
2023-04-07T07:47:47.564Z,601.6154
2023-04-07T07:48:49.152Z,602.3077
2023-04-07T07:49:50.698Z,600.8461
2023-04-07T07:50:52.368Z,601.0769
2023-04-07T07:51:54.010Z,598.8461
2023-04-07T07:52:55.707Z,595.8461
2023-04-07T07:53:57.376Z,597.8461
2023-04-07T07:54:58.995Z,598.7692
2023-04-07T07:56:00.700Z,598.4615
2023-04-07T07:57:02.373Z,598.3077
2023-04-07T07:58:04.037Z,598.0000
2023-04-07T07:59:05.730Z,597.1539
2023-04-07T08:00:07.327Z,597.6923
2023-04-07T08:01:08.933Z,596.7692
2023-04-07T08:02:11.089Z,597.2308
2023-04-07T08:03:12.374Z,597.7692
2023-04-07T08:04:14.023Z,596.3846
2023-04-07T08:05:15.544Z,599.8461
2023-04-07T08:06:17.191Z,601.0000
2023-04-07T08:07:18.921Z,602.7692
2023-04-07T08:08:20.562Z,602.5385
2023-04-07T08:09:22.227Z,602.1539
2023-04-07T08:10:23.897Z,603.1539
2023-04-07T08:11:25.501Z,604.6923
2023-04-07T08:12:27.783Z,603.0769
2023-04-07T08:13:28.925Z,602.1539
2023-04-07T08:14:30.528Z,601.0769
2023-04-07T08:15:32.124Z,599.2308
2023-04-07T08:16:33.798Z,596.7692
2023-04-07T08:17:35.345Z,595.9231
2023-04-07T08:18:37.094Z,592.4615
2023-04-07T08:19:38.735Z,592.7692
2023-04-07T08:20:40.378Z,592.2308
2023-04-07T08:21:42.070Z,588.3846
2023-04-07T08:22:43.722Z,585.8461
2023-04-07T08:23:45.489Z,586.0000
2023-04-07T08:24:47.043Z,587.0000
2023-04-07T08:25:48.674Z,586.0769
2023-04-07T08:26:50.350Z,585.6923
2023-04-07T08:27:52.753Z,585.3846
2023-04-07T08:28:53.774Z,584.5385
2023-04-07T08:29:55.448Z,584.3846
2023-04-07T08:30:57.036Z,587.3846
2023-04-07T08:31:58.739Z,589.0769
2023-04-07T08:33:00.412Z,588.9231
2023-04-07T08:34:02.326Z,587.9231
2023-04-07T08:35:03.658Z,586.3846
2023-04-07T08:36:05.403Z,584.9231
2023-04-07T08:37:06.946Z,583.7692
2023-04-07T08:38:08.552Z,584.4615
2023-04-07T08:39:10.305Z,584.6923
2023-04-07T08:40:11.896Z,583.6154
2023-04-07T08:41:13.600Z,584.9231
2023-04-07T08:42:15.207Z,586.0769
2023-04-07T08:43:16.852Z,587.0769
2023-04-07T08:44:18.599Z,586.8461
2023-04-07T08:45:20.163Z,589.3077
2023-04-07T08:46:21.810Z,589.2308
2023-04-07T08:47:23.555Z,589.0769
2023-04-07T08:48:25.237Z,590.1539
2023-04-07T08:49:26.852Z,592.3077
2023-04-07T08:50:28.467Z,593.4615
2023-04-07T08:51:30.105Z,592.5385
2023-04-07T08:52:31.747Z,591.4615
2023-04-07T08:53:33.410Z,590.0000
2023-04-07T08:54:35.125Z,589.0000
2023-04-07T08:55:36.704Z,587.6923
2023-04-07T08:56:38.384Z,587.7692
2023-04-07T08:57:40.112Z,586.1539
2023-04-07T08:58:41.700Z,584.8461
2023-04-07T08:59:43.511Z,585.3077
2023-04-07T09:00:45.084Z,586.3077
2023-04-07T09:01:46.931Z,585.2308
2023-04-07T09:02:48.500Z,584.0000
2023-04-07T09:03:50.290Z,582.3846
2023-04-07T09:04:51.908Z,580.9231
2023-04-07T09:05:53.262Z,582.2308
2023-04-07T09:06:55.058Z,582.5385
2023-04-07T09:07:56.744Z,580.2308
2023-04-07T09:08:58.761Z,579.2308
2023-04-07T09:09:59.919Z,579.0769
2023-04-07T09:11:01.541Z,578.5385
2023-04-07T09:12:03.646Z,575.6923
2023-04-07T09:13:04.934Z,574.7692
2023-04-07T09:14:06.579Z,576.1539
2023-04-07T09:15:08.242Z,577.0000
2023-04-07T09:16:09.876Z,575.3846
2023-04-07T09:17:11.525Z,576.1539
2023-04-07T09:18:13.580Z,579.0769
2023-04-07T09:19:14.701Z,580.0769
2023-04-07T09:20:16.690Z,580.7692
2023-04-07T09:21:18.093Z,580.8461
2023-04-07T09:22:19.716Z,579.0000
2023-04-07T09:23:22.259Z,578.8461
2023-04-07T09:24:23.386Z,578.8461
2023-04-07T09:25:24.782Z,580.3077
2023-04-07T09:26:26.487Z,583.2308
2023-04-07T09:27:28.007Z,584.8461
2023-04-07T09:28:29.868Z,583.9231
2023-04-07T09:29:31.453Z,585.7692
2023-04-07T09:30:33.341Z,585.9231
2023-04-07T09:31:34.880Z,584.8461
2023-04-07T09:32:36.483Z,584.8461
2023-04-07T09:33:38.131Z,584.6923
2023-04-07T09:34:41.095Z,582.5385
2023-04-07T09:35:41.436Z,581.4615
2023-04-07T09:36:42.934Z,579.7692
2023-04-07T09:37:44.697Z,579.6154
2023-04-07T09:38:46.513Z,581.3846
2023-04-07T09:39:48.063Z,583.6154
2023-04-07T09:40:49.707Z,581.6154
2023-04-07T09:41:51.397Z,580.4615
2023-04-07T09:42:53.001Z,579.2308
2023-04-07T09:43:54.576Z,578.8461
2023-04-07T09:44:56.245Z,580.6923
2023-04-07T09:45:57.943Z,582.0769
2023-04-07T09:47:00.385Z,583.2308
2023-04-07T09:48:01.202Z,581.9231
2023-04-07T09:49:02.990Z,581.1539
2023-04-07T09:50:04.686Z,581.9231
2023-04-07T09:51:06.332Z,581.1539
2023-04-07T09:52:08.002Z,581.3077
2023-04-07T09:53:09.578Z,582.4615
2023-04-07T09:54:11.138Z,580.7692
2023-04-07T09:55:13.853Z,581.3077
2023-04-07T09:56:14.477Z,580.4615
2023-04-07T09:57:16.099Z,579.0769
2023-04-07T09:58:17.740Z,580.4615
2023-04-07T09:59:19.458Z,579.0769
2023-04-07T10:00:21.169Z,578.6154
2023-04-07T10:01:23.319Z,578.8461
2023-04-07T10:02:24.783Z,579.4615
2023-04-07T10:03:26.183Z,578.0769
2023-04-07T10:04:27.765Z,578.1539
2023-04-07T10:05:29.373Z,576.0769
2023-04-07T10:06:31.412Z,575.5385
2023-04-07T10:07:32.741Z,574.7692
2023-04-07T10:08:34.498Z,574.0000
2023-04-07T10:09:36.011Z,574.3846
2023-04-07T10:10:37.651Z,574.5385
2023-04-07T10:11:39.337Z,573.6154
2023-04-07T10:12:40.978Z,573.6923
2023-04-07T10:13:42.597Z,573.0000
2023-04-07T10:14:44.225Z,571.5385
2023-04-07T10:15:45.930Z,570.2308
2023-04-07T10:16:48.304Z,571.4615
2023-04-07T10:17:49.288Z,570.3846
2023-04-07T10:18:50.888Z,570.8461
2023-04-07T10:19:52.543Z,572.2308
2023-04-07T10:20:54.208Z,572.0769
2023-04-07T10:21:56.873Z,570.8461
2023-04-07T10:22:57.757Z,573.0000
2023-04-07T10:23:59.209Z,575.8461
2023-04-07T10:25:00.862Z,575.0000
2023-04-07T10:26:02.554Z,572.9231
2023-04-07T10:27:04.236Z,570.3846
2023-04-07T10:28:05.887Z,568.1539
2023-04-07T10:29:07.445Z,564.0769
2023-04-07T10:30:09.171Z,565.3077
2023-04-07T10:31:10.854Z,566.0000
2023-04-07T10:32:12.555Z,564.9231
2023-04-07T10:33:14.202Z,562.3846
2023-04-07T10:34:15.879Z,562.6154
2023-04-07T10:35:17.530Z,563.1539
2023-04-07T10:36:19.090Z,561.9231
2023-04-07T10:37:20.948Z,562.6923
2023-04-07T10:38:22.834Z,562.6923
2023-04-07T10:39:24.116Z,564.2308
2023-04-07T10:40:25.747Z,566.1539
2023-04-07T10:41:27.367Z,569.2308
2023-04-07T10:42:29.070Z,568.8461
2023-04-07T10:43:30.738Z,567.7692
2023-04-07T10:44:32.268Z,567.8461
2023-04-07T10:45:34.050Z,569.3077
2023-04-07T10:46:35.614Z,568.1539
2023-04-07T10:47:37.357Z,569.6154
2023-04-07T10:48:38.941Z,570.8461
2023-04-07T10:49:40.542Z,571.1539
2023-04-07T10:50:42.267Z,572.2308
2023-04-07T10:51:43.895Z,570.3077
2023-04-07T10:52:45.529Z,568.5385
2023-04-07T10:53:47.179Z,567.8461
2023-04-07T10:54:48.932Z,566.4615
2023-04-07T10:55:50.516Z,565.2308
2023-04-07T10:56:52.167Z,564.4615
2023-04-07T10:57:53.889Z,565.6154
2023-04-07T10:58:55.582Z,564.1539
2023-04-07T10:59:58.651Z,566.3846
2023-04-07T11:00:58.828Z,567.4615
2023-04-07T11:02:00.526Z,569.4615
2023-04-07T11:03:02.347Z,570.7692
2023-04-07T11:04:03.870Z,572.1539
2023-04-07T11:05:05.463Z,570.8461
2023-04-07T11:06:07.109Z,570.9231
2023-04-07T11:07:08.835Z,571.5385
2023-04-07T11:08:10.465Z,570.8461
2023-04-07T11:09:12.246Z,570.0769
2023-04-07T11:10:13.769Z,566.0000
2023-04-07T11:11:15.356Z,560.9231
2023-04-07T11:12:17.172Z,560.3846
2023-04-07T11:13:18.801Z,559.8461
2023-04-07T11:14:20.320Z,562.4615
2023-04-07T11:15:21.998Z,563.6923
2023-04-07T11:16:23.632Z,564.1539
2023-04-07T11:17:25.362Z,565.0769
2023-04-07T11:18:27.014Z,565.8461
2023-04-07T11:19:28.603Z,565.4615
2023-04-07T11:20:30.225Z,566.4615
2023-04-07T11:21:31.873Z,565.8461
2023-04-07T11:22:33.556Z,561.5385
2023-04-07T11:23:35.374Z,559.0769
2023-04-07T11:24:36.955Z,559.9231
2023-04-07T11:25:38.463Z,561.4615
2023-04-07T11:26:40.186Z,563.7692
2023-04-07T11:27:41.868Z,565.6923
2023-04-07T11:28:43.632Z,565.8461
2023-04-07T11:29:45.097Z,570.0000
2023-04-07T11:30:46.790Z,569.3077
2023-04-07T11:31:48.529Z,568.0769
2023-04-07T11:32:50.113Z,569.5385
2023-04-07T11:33:51.802Z,572.4615
2023-04-07T11:34:53.726Z,571.5385
2023-04-07T11:35:55.135Z,570.3077
2023-04-07T11:36:56.769Z,570.6923
2023-04-07T11:37:58.336Z,572.0769
2023-04-07T11:39:00.008Z,570.6923
2023-04-07T11:40:01.681Z,569.5385
2023-04-07T11:41:03.422Z,566.4615
2023-04-07T11:42:04.999Z,565.5385
2023-04-07T11:43:06.720Z,565.6923
2023-04-07T11:44:08.529Z,569.6154
2023-04-07T11:45:10.042Z,572.0000
2023-04-07T11:46:11.725Z,575.3846
2023-04-07T11:47:13.306Z,571.2308
2023-04-07T11:48:15.001Z,569.2308
2023-04-07T11:49:16.635Z,570.2308
2023-04-07T11:50:18.308Z,572.8461
2023-04-07T11:51:19.928Z,579.1539
2023-04-07T11:52:21.586Z,583.0769
2023-04-07T11:53:23.234Z,575.6154
2023-04-07T11:54:24.961Z,574.1539
2023-04-07T11:55:26.576Z,574.4615
2023-04-07T11:56:28.259Z,574.2308
2023-04-07T11:57:29.902Z,574.3846
2023-04-07T11:58:31.560Z,571.4615
2023-04-07T11:59:33.209Z,568.9231
2023-04-07T12:00:34.773Z,569.3077
2023-04-07T12:01:36.600Z,573.4615
2023-04-07T12:02:38.889Z,575.3846
2023-04-07T12:03:39.901Z,572.8461
2023-04-07T12:04:41.553Z,571.9231